createdAt,value
2023-03-26T00:00:26.489Z,98835.62
2023-03-26T00:05:49.786Z,98832.73
2023-03-26T00:10:52.441Z,98827.88
2023-03-26T00:15:55.510Z,98827.27
2023-03-26T00:20:59.661Z,98826.34
2023-03-26T00:26:03.704Z,98822.13
2023-03-26T00:31:09.052Z,98812.20
2023-03-26T00:36:15.435Z,98813.27
2023-03-26T00:41:26.298Z,98808.05
2023-03-26T00:46:31.575Z,98807.63
2023-03-26T00:51:35.077Z,98803.33
2023-03-26T00:56:38.967Z,98800.10
2023-03-26T01:01:41.851Z,98795.24
2023-03-26T01:06:45.433Z,98798.06
2023-03-26T01:11:49.733Z,98799.98
2023-03-26T01:16:55.155Z,98796.61
2023-03-26T01:21:59.093Z,98794.64
2023-03-26T01:27:27.836Z,98791.34
2023-03-26T01:32:53.159Z,98786.10
2023-03-26T01:38:10.977Z,98789.39
2023-03-26T01:43:39.807Z,98783.08
2023-03-26T01:48:45.194Z,98770.44
2023-03-26T01:53:48.521Z,98760.48
2023-03-26T01:59:16.794Z,98758.11
2023-03-26T02:04:35.046Z,98757.48
2023-03-26T02:09:58.345Z,98752.11
2023-03-26T02:15:02.260Z,98751.73
2023-03-26T02:20:09.922Z,98747.96
2023-03-26T02:25:16.419Z,98739.69
2023-03-26T02:30:27.158Z,98739.58
2023-03-26T02:35:29.866Z,98739.44
2023-03-26T02:40:32.668Z,98741.23
2023-03-26T02:45:35.469Z,98735.05
2023-03-26T02:50:38.296Z,98733.86
2023-03-26T02:55:41.067Z,98738.04
2023-03-26T03:00:45.002Z,98735.60
2023-03-26T03:05:47.650Z,98728.40
2023-03-26T03:10:57.232Z,98716.97
2023-03-26T03:15:59.906Z,98714.39
2023-03-26T03:21:03.556Z,98714.11
2023-03-26T03:26:13.019Z,98719.34
2023-03-26T03:31:17.346Z,98717.23
2023-03-26T03:36:22.737Z,98721.09
2023-03-26T03:41:25.427Z,98715.66
2023-03-26T03:46:28.712Z,98716.33
2023-03-26T03:51:31.540Z,98711.76
2023-03-26T03:56:34.300Z,98707.66
2023-03-26T04:01:37.709Z,98710.09
2023-03-26T04:06:40.452Z,98708.66
2023-03-26T04:11:43.126Z,98710.51
2023-03-26T04:16:46.062Z,98713.48
2023-03-26T04:21:49.670Z,98704.83
2023-03-26T04:26:52.418Z,98702.33
2023-03-26T04:32:06.513Z,98696.46
2023-03-26T04:37:16.621Z,98693.23
2023-03-26T04:42:20.179Z,98688.54
2023-03-26T04:47:23.632Z,98681.69
2023-03-26T04:52:26.547Z,98674.12
2023-03-26T04:57:39.499Z,98676.63
2023-03-26T05:02:43.369Z,98673.95
2023-03-26T05:07:46.114Z,98669.78
2023-03-26T05:12:49.527Z,98669.90
2023-03-26T05:17:52.311Z,98671.08
2023-03-26T05:22:55.856Z,98670.73
2023-03-26T05:27:58.581Z,98671.52
2023-03-26T05:33:04.410Z,98670.63
2023-03-26T05:38:07.351Z,98666.23
2023-03-26T05:43:10.239Z,98665.60
2023-03-26T05:48:13.024Z,98664.62
2023-03-26T05:53:15.833Z,98665.38
2023-03-26T05:58:18.464Z,98661.79
2023-03-26T06:03:23.409Z,98665.43
2023-03-26T06:08:26.727Z,98667.34
2023-03-26T06:13:29.593Z,98669.48
2023-03-26T06:18:32.835Z,98666.02
2023-03-26T06:23:35.601Z,98664.84
2023-03-26T06:28:38.298Z,98658.33
2023-03-26T06:33:41.106Z,98663.14
2023-03-26T06:38:43.790Z,98663.89
2023-03-26T06:43:46.500Z,98664.97
2023-03-26T06:48:49.396Z,98661.55
2023-03-26T06:53:52.207Z,98667.01
2023-03-26T06:58:54.895Z,98663.71
2023-03-26T07:04:00.013Z,98660.45
2023-03-26T07:09:03.421Z,98666.05
2023-03-26T07:14:06.221Z,98662.20
2023-03-26T07:19:08.976Z,98662.50
2023-03-26T07:24:12.548Z,98661.81
2023-03-26T07:29:35.178Z,98662.66
2023-03-26T07:35:12.862Z,98658.33
2023-03-26T07:40:37.828Z,98661.91
2023-03-26T07:45:43.222Z,98658.48
2023-03-26T07:50:47.083Z,98658.06
2023-03-26T07:56:00.679Z,98657.92
2023-03-26T08:01:46.290Z,98649.84
2023-03-26T08:06:59.674Z,98652.00
2023-03-26T08:12:45.516Z,98650.58
2023-03-26T08:18:20.252Z,98648.21
2023-03-26T08:23:50.672Z,98647.77
2023-03-26T08:28:57.399Z,98642.89
2023-03-26T08:34:00.458Z,98640.06
2023-03-26T08:39:04.223Z,98643.20
2023-03-26T08:44:25.984Z,98647.78
2023-03-26T08:49:50.277Z,98642.79
2023-03-26T08:55:14.882Z,98643.73
2023-03-26T09:00:57.573Z,98640.14
2023-03-26T09:06:33.299Z,98640.72
2023-03-26T09:11:58.455Z,98636.26
2023-03-26T09:17:13.520Z,98628.91
2023-03-26T09:22:35.082Z,98640.30
2023-03-26T09:27:56.483Z,98647.20
2023-03-26T09:33:32.881Z,98656.22
2023-03-26T09:38:35.461Z,98654.81
2023-03-26T09:43:54.476Z,98660.31
2023-03-26T09:49:21.528Z,98666.64
2023-03-26T09:54:52.182Z,98665.45
2023-03-26T10:00:26.056Z,98654.90
2023-03-26T10:06:12.947Z,98651.44
2023-03-26T10:11:43.358Z,98652.44
2023-03-26T10:17:07.902Z,98660.70
2023-03-26T10:22:26.022Z,98658.31
2023-03-26T10:27:37.634Z,98656.15
2023-03-26T10:32:52.356Z,98654.48
2023-03-26T10:38:16.083Z,98656.55
2023-03-26T10:43:47.985Z,98654.65
2023-03-26T10:49:28.292Z,98647.42
2023-03-26T10:54:58.038Z,98653.08
2023-03-26T11:00:25.542Z,98649.13
2023-03-26T11:05:51.403Z,98652.05
2023-03-26T11:11:10.453Z,98656.94
2023-03-26T11:16:30.660Z,98660.42
2023-03-26T11:21:42.968Z,98662.55
2023-03-26T11:27:15.333Z,98660.26
2023-03-26T11:32:32.618Z,98663.45
2023-03-26T11:37:41.728Z,98661.98
2023-03-26T11:42:45.395Z,98661.15
2023-03-26T11:47:56.162Z,98654.35
2023-03-26T11:53:23.953Z,98651.98
2023-03-26T11:59:01.138Z,98648.44
2023-03-26T12:04:15.821Z,98646.64
2023-03-26T12:09:20.248Z,98653.19
2023-03-26T12:14:26.654Z,98670.65
2023-03-26T12:19:39.450Z,98692.95
2023-03-26T12:24:42.428Z,98711.67
2023-03-26T12:29:51.600Z,98729.41
2023-03-26T12:34:54.362Z,98731.19
2023-03-26T12:40:25.912Z,98725.84
2023-03-26T12:45:38.581Z,98716.55
2023-03-26T12:51:06.577Z,98706.17
2023-03-26T12:56:21.593Z,98702.02
2023-03-26T13:01:50.444Z,98699.08
2023-03-26T13:07:15.380Z,98688.80
2023-03-26T13:12:48.284Z,98687.84
2023-03-26T13:18:21.987Z,98683.14
2023-03-26T13:23:42.380Z,98682.89
2023-03-26T13:28:52.703Z,98682.58
2023-03-26T13:34:13.494Z,98675.99
2023-03-26T13:39:37.218Z,98679.44
2023-03-26T13:45:05.126Z,98683.66
2023-03-26T13:50:25.548Z,98691.89
2023-03-26T13:55:44.803Z,98695.23
2023-03-26T14:01:18.012Z,98694.60
2023-03-26T14:06:43.666Z,98695.65
2023-03-26T14:12:21.013Z,98698.31
2023-03-26T14:17:28.658Z,98696.36
2023-03-26T14:22:56.892Z,98695.10
2023-03-26T14:28:02.361Z,98694.17
2023-03-26T14:33:38.550Z,98701.68
2023-03-26T14:38:47.341Z,98710.05
2023-03-26T14:44:48.104Z,98725.36
2023-03-26T14:50:13.904Z,98728.02
2023-03-26T14:55:56.812Z,98731.69
2023-03-26T15:01:22.740Z,98734.05
2023-03-26T15:06:43.672Z,98740.48
2023-03-26T15:11:53.542Z,98738.52
2023-03-26T15:17:40.612Z,98746.39
2023-03-26T15:22:54.041Z,98745.07
2023-03-26T15:27:57.561Z,98750.02
2023-03-26T15:33:18.685Z,98739.98
2023-03-26T15:38:41.748Z,98739.02
2023-03-26T15:49:42.994Z,98750.11
2023-03-26T15:55:27.871Z,98759.73
2023-03-26T16:00:35.572Z,98758.35
2023-03-26T16:05:56.921Z,98754.59
2023-03-26T16:11:00.592Z,98753.35
2023-03-26T16:16:03.746Z,98753.67
2023-03-26T16:21:32.120Z,98766.02
2023-03-26T16:26:44.736Z,98774.67
2023-03-26T16:32:19.938Z,98777.98
2023-03-26T16:37:37.903Z,98787.30
2023-03-26T16:42:45.814Z,98789.63
2023-03-26T16:48:01.660Z,98783.90
2023-03-26T16:53:29.615Z,98780.93
2023-03-26T16:59:06.987Z,98776.23
2023-03-26T17:04:17.434Z,98778.52
2023-03-26T17:09:51.903Z,98788.27
2023-03-26T17:15:01.101Z,98793.27
2023-03-26T17:20:16.394Z,98803.09
2023-03-26T17:25:32.743Z,98813.40
2023-03-26T17:30:44.824Z,98814.78
2023-03-26T17:35:50.619Z,98826.51
2023-03-26T17:40:59.640Z,98831.82
2023-03-26T17:46:33.374Z,98840.77
2023-03-26T17:51:48.031Z,98843.97
2023-03-26T17:56:53.195Z,98839.61
2023-03-26T18:01:59.951Z,98839.92
2023-03-26T18:07:04.231Z,98841.59
2023-03-26T18:12:28.129Z,98842.84
2023-03-26T18:17:40.252Z,98852.38
2023-03-26T18:22:44.473Z,98855.34
2023-03-26T18:27:48.725Z,98851.20
2023-03-26T18:33:03.595Z,98851.38
2023-03-26T18:38:06.605Z,98845.50
2023-03-26T18:43:28.877Z,98850.00
2023-03-26T18:48:37.176Z,98849.92
2023-03-26T18:53:54.388Z,98842.91
2023-03-26T18:59:02.779Z,98841.67
2023-03-26T19:04:08.336Z,98841.84
2023-03-26T19:09:28.033Z,98840.67
2023-03-26T19:14:37.028Z,98849.19
2023-03-26T19:19:39.976Z,98861.86
2023-03-26T19:24:42.986Z,98862.42
2023-03-26T19:29:46.646Z,98862.30
2023-03-26T19:34:50.838Z,98858.84
2023-03-26T19:39:55.620Z,98858.88
2023-03-26T19:44:59.596Z,98859.58
2023-03-26T19:50:19.597Z,98859.57
2023-03-26T19:55:24.209Z,98854.48
2023-03-26T20:00:26.982Z,98864.48
2023-03-26T20:05:34.150Z,98866.97
2023-03-26T20:10:36.871Z,98863.70
2023-03-26T20:15:40.968Z,98858.52
2023-03-26T20:20:43.835Z,98852.27
2023-03-26T20:25:53.719Z,98847.88
2023-03-26T20:30:57.116Z,98848.27
2023-03-26T20:36:00.519Z,98852.41
2023-03-26T20:41:04.312Z,98848.05
2023-03-26T20:46:07.320Z,98848.93
2023-03-26T20:51:15.648Z,98851.39
2023-03-26T20:56:20.662Z,98847.41
2023-03-26T21:01:23.870Z,98846.14
2023-03-26T21:06:26.826Z,98845.88
2023-03-26T21:11:45.854Z,98853.20
2023-03-26T21:16:49.077Z,98852.20
2023-03-26T21:22:07.955Z,98859.10
2023-03-26T21:27:26.510Z,98862.58
2023-03-26T21:32:31.656Z,98857.29
2023-03-26T21:37:35.124Z,98858.74
2023-03-26T21:42:38.087Z,98863.13
2023-03-26T21:47:42.100Z,98863.41
2023-03-26T21:52:48.554Z,98858.30
2023-03-26T21:57:54.124Z,98862.49
2023-03-26T22:03:05.941Z,98861.77
2023-03-26T22:08:21.537Z,98862.25
2023-03-26T22:13:24.825Z,98865.49
2023-03-26T22:18:30.415Z,98863.20
2023-03-26T22:23:34.326Z,98855.79
2023-03-26T22:28:37.201Z,98855.94
2023-03-26T22:33:43.227Z,98857.40
2023-03-26T22:38:46.635Z,98859.69
2023-03-26T22:43:52.192Z,98867.04
2023-03-26T22:48:56.033Z,98874.41
2023-03-26T22:53:58.723Z,98872.73
2023-03-26T22:59:01.399Z,98878.17
2023-03-26T23:04:04.176Z,98876.89
2023-03-26T23:09:07.178Z,98879.32
2023-03-26T23:14:10.041Z,98881.20
2023-03-26T23:19:12.788Z,98883.63
2023-03-26T23:24:15.845Z,98877.83
2023-03-26T23:29:19.126Z,98880.73
2023-03-26T23:34:22.880Z,98878.09
2023-03-26T23:39:26.917Z,98864.91
2023-03-26T23:44:29.713Z,98863.77
2023-03-26T23:49:32.382Z,98864.77
2023-03-26T23:54:35.725Z,98866.19
2023-03-26T23:59:38.630Z,98864.29
